createdAt,value
2024-01-18T00:13:46.470Z,7.10
2024-01-18T00:51:06.030Z,6.10
2024-01-18T01:09:45.972Z,6.20
2024-01-18T01:28:30.148Z,4.30
2024-01-18T01:47:04.846Z,3.10
2024-01-18T02:05:43.717Z,9.50
2024-01-18T02:24:22.902Z,3.80
2024-01-18T03:01:42.730Z,5.10
2024-01-18T03:20:22.270Z,7.90
2024-01-18T03:39:07.489Z,3.80
2024-01-18T03:57:41.777Z,5.00
2024-01-18T04:16:26.154Z,3.40
2024-01-18T04:35:02.171Z,3.50
2024-01-18T04:53:41.528Z,4.90
2024-01-18T05:12:22.236Z,3.80
2024-01-18T05:31:01.987Z,5.30
2024-01-18T05:49:47.801Z,5.60
2024-01-18T06:08:23.700Z,6.50
2024-01-18T06:45:42.878Z,4.50
2024-01-18T07:04:23.105Z,10.20
2024-01-18T07:23:02.609Z,12.70
2024-01-18T08:19:04.766Z,14.70
2024-01-18T08:37:45.990Z,10.80
2024-01-18T08:56:32.969Z,10.90
2024-01-18T09:15:07.074Z,16.90
2024-01-18T09:33:47.858Z,2.70
2024-01-18T09:52:31.585Z,2.50
2024-01-18T10:11:14.203Z,3.30
2024-01-18T10:30:14.018Z,4.60
2024-01-18T10:48:51.226Z,2.50
2024-01-18T11:07:34.763Z,7.20
2024-01-18T11:26:16.303Z,2.40
2024-01-18T11:44:52.044Z,3.30
2024-01-18T12:03:26.398Z,2.50
2024-01-18T12:22:09.206Z,3.00
2024-01-18T12:41:08.493Z,1.90
2024-01-18T12:59:58.775Z,1.70
2024-01-18T13:18:47.280Z,6.70
2024-01-18T13:55:32.376Z,5.60
2024-01-18T14:14:04.315Z,11.20
2024-01-18T14:32:36.816Z,4.20
2024-01-18T15:09:50.367Z,5.60
2024-01-18T15:28:26.538Z,7.10
2024-01-18T15:47:03.183Z,6.00
2024-01-18T16:05:40.323Z,11.10
2024-01-18T16:24:16.522Z,13.70
2024-01-18T16:42:55.014Z,12.90
2024-01-18T17:01:33.891Z,15.40
2024-01-18T17:20:14.358Z,21.40
2024-01-18T17:38:51.877Z,31.60
2024-01-18T17:57:30.456Z,52.30
2024-01-18T18:16:08.624Z,16.20
2024-01-18T18:34:46.189Z,24.10
2024-01-18T19:12:02.626Z,40.70
2024-01-18T19:30:34.153Z,93.20
2024-01-18T19:49:13.474Z,47.50
2024-01-18T20:07:47.213Z,108.20
2024-01-18T20:26:25.537Z,176.40
2024-01-18T21:03:46.159Z,24.30
2024-01-18T21:22:20.574Z,32.60
2024-01-18T21:40:59.430Z,32.70
2024-01-18T21:59:42.483Z,26.70
2024-01-18T22:18:17.551Z,94.70
2024-01-18T22:36:55.701Z,58.10
2024-01-18T22:55:33.884Z,61.20
2024-01-18T23:14:19.910Z,28.30
2024-01-18T23:32:52.509Z,8.80
2024-01-18T23:51:31.189Z,14.70
